Volzhskiy-47 — UBEV — position and weather

sailwx.info

Track history (hours):
 
Tides and Currents Weather Stations Pressure Air Temp Water Temp Dewpoint Dewpoint Depression Visibility Wind Speed Wind Dir Waves Ship Positions

Volzhskiy-47

Last reported at 2018-Feb-18 08:09 UTC. Time now 2018-Feb-23 14:12 UTC.
Position N 45°30' E 036°45'.

Length 139 m; draft 2.6 m.

Type: Cargo ship. MMSI: 273431620.

Date/timePositionNaut miles runAvg speedWind from/ knotsBaromVisibWave heightAir tempDewpointWater temp
2018-Feb-18 08:09N 45°30' E 036°45'1 4.9
2018-Feb-18 08:00N 45°29' E 036°44'0 0.3
2018-Feb-18 07:30N 45°29' E 036°44'0 0.0
2018-Feb-18 06:58N 45°29' E 036°44'1 1.2
2018-Feb-18 06:30N 45°29' E 036°44'3 5.0
2018-Feb-18 05:59N 45°26' E 036°42'2 4.9
2018-Feb-18 05:30N 45°24' E 036°41'3 5.2
2018-Feb-18 05:00N 45°22' E 036°40'4 7.2
2018-Feb-18 04:30N 45°20' E 036°35'6 7.0
2018-Feb-18 03:43N 45°17' E 036°29'  
2018-Feb-11 09:05N 45°09' E 036°30'1 6.1
2018-Feb-11 08:55N 45°10' E 036°31'0 0.2
2018-Feb-11 07:15N 45°10' E 036°31'1 1.9
2018-Feb-11 06:48N 45°10' E 036°30'2 6.1
2018-Feb-11 06:29N 45°12' E 036°29'3 7.0
2018-Feb-11 06:00N 45°15' E 036°28'3 7.0
2018-Feb-11 05:30N 45°18' E 036°30'4 7.7
2018-Feb-11 05:00N 45°20' E 036°35'4 7.8
2018-Feb-11 04:30N 45°22' E 036°40'4 7.5
2018-Feb-11 03:59N 45°26' E 036°42'4 1.6
2018-Feb-11 01:36N 45°29' E 036°44'0 0.0
2018-Feb-11 01:24N 45°29' E 036°44'0 0.0
2018-Feb-10 23:20N 45°29' E 036°44'0 0.0
2018-Feb-10 22:59N 45°29' E 036°44'0 0.0
2018-Feb-10 22:19N 45°29' E 036°44'0 0.0
2018-Feb-10 21:34N 45°29' E 036°44'0 0.1
2018-Feb-10 21:09N 45°29' E 036°44'0 0.3
2018-Feb-10 20:53N 45°29' E 036°44'1 3.1
2018-Feb-10 20:30N 45°30' E 036°44'  
Track history (hours):
 
Tides and Currents Weather Stations Pressure Air Temp Water Temp Dewpoint Dewpoint Depression Visibility Wind Speed Wind Dir Waves Ship Positions

Volzhskiy-47

Last reported at 2018-Feb-18 08:09 UTC. Time now 2018-Feb-23 14:12 UTC.
Position N 45°30' E 036°45'.

Length 139 m; draft 2.6 m.

Type: Cargo ship. MMSI: 273431620.

Date/timePositionNaut miles runAvg speedWind from/ knotsBaromVisibWave heightAir tempDewpointWater temp
2018-Feb-18 08:09N 45°30' E 036°45'1 4.9
2018-Feb-18 08:00N 45°29' E 036°44'0 0.3
2018-Feb-18 07:30N 45°29' E 036°44'0 0.0
2018-Feb-18 06:58N 45°29' E 036°44'1 1.2
2018-Feb-18 06:30N 45°29' E 036°44'3 5.0
2018-Feb-18 05:59N 45°26' E 036°42'2 4.9
2018-Feb-18 05:30N 45°24' E 036°41'3 5.2
2018-Feb-18 05:00N 45°22' E 036°40'4 7.2
2018-Feb-18 04:30N 45°20' E 036°35'6 7.0
2018-Feb-18 03:43N 45°17' E 036°29'  
2018-Feb-11 09:05N 45°09' E 036°30'1 6.1
2018-Feb-11 08:55N 45°10' E 036°31'0 0.2
2018-Feb-11 07:15N 45°10' E 036°31'1 1.9
2018-Feb-11 06:48N 45°10' E 036°30'2 6.1
2018-Feb-11 06:29N 45°12' E 036°29'3 7.0
2018-Feb-11 06:00N 45°15' E 036°28'3 7.0
2018-Feb-11 05:30N 45°18' E 036°30'4 7.7
2018-Feb-11 05:00N 45°20' E 036°35'4 7.8
2018-Feb-11 04:30N 45°22' E 036°40'4 7.5
2018-Feb-11 03:59N 45°26' E 036°42'4 1.6
2018-Feb-11 01:36N 45°29' E 036°44'0 0.0
2018-Feb-11 01:24N 45°29' E 036°44'0 0.0
2018-Feb-10 23:20N 45°29' E 036°44'0 0.0
2018-Feb-10 22:59N 45°29' E 036°44'0 0.0
2018-Feb-10 22:19N 45°29' E 036°44'0 0.0
2018-Feb-10 21:34N 45°29' E 036°44'0 0.1
2018-Feb-10 21:09N 45°29' E 036°44'0 0.3
2018-Feb-10 20:53N 45°29' E 036°44'1 3.1
2018-Feb-10 20:30N 45°30' E 036°44'  

Dump ship's entire track history